createdAt,value
2022-12-29T00:00:23.686Z,60.41
2022-12-29T00:02:51.206Z,60.23
2022-12-29T00:05:18.507Z,60.24
2022-12-29T00:07:46.135Z,59.32
2022-12-29T00:10:13.521Z,59.54
2022-12-29T00:12:59.370Z,59.11
2022-12-29T00:15:39.304Z,59.50
2022-12-29T00:18:08.390Z,60.22
2022-12-29T00:20:57.081Z,59.94
2022-12-29T00:23:43.214Z,58.17
2022-12-29T00:26:36.053Z,57.89
2022-12-29T00:29:22.649Z,58.44
2022-12-29T00:32:08.964Z,59.18
2022-12-29T00:34:55.021Z,59.16
2022-12-29T00:37:42.261Z,59.83
2022-12-29T00:40:28.971Z,58.94
2022-12-29T00:43:15.113Z,58.35
2022-12-29T00:45:43.223Z,60.48
2022-12-29T00:48:10.621Z,60.47
2022-12-29T00:50:38.161Z,60.13
2022-12-29T00:53:06.325Z,59.34
2022-12-29T00:55:39.586Z,59.52
2022-12-29T00:58:06.957Z,58.98
2022-12-29T01:00:34.601Z,58.52
2022-12-29T01:03:02.045Z,58.63
2022-12-29T01:05:29.519Z,58.27
2022-12-29T01:07:56.806Z,58.39
2022-12-29T01:10:25.449Z,58.05
2022-12-29T01:12:53.813Z,58.09
2022-12-29T01:15:21.846Z,58.76
2022-12-29T01:17:49.543Z,60.05
2022-12-29T01:20:16.960Z,60.31
2022-12-29T01:22:44.749Z,60.58
2022-12-29T01:25:12.272Z,59.66
2022-12-29T01:27:40.503Z,59.08
2022-12-29T01:30:09.039Z,60.04
2022-12-29T01:32:36.385Z,59.22
2022-12-29T01:35:04.885Z,59.68
2022-12-29T01:37:35.537Z,60.15
2022-12-29T01:40:03.599Z,59.81
2022-12-29T01:42:32.811Z,59.34
2022-12-29T01:45:15.717Z,58.90
2022-12-29T01:48:03.445Z,58.72
2022-12-29T01:50:39.090Z,59.61
2022-12-29T01:53:15.092Z,58.67
2022-12-29T01:55:54.287Z,58.28
2022-12-29T01:58:29.224Z,57.98
2022-12-29T02:00:56.814Z,58.23
2022-12-29T02:03:29.620Z,57.87
2022-12-29T02:06:23.726Z,57.25
2022-12-29T02:08:56.353Z,57.56
2022-12-29T02:11:28.251Z,57.11
2022-12-29T02:13:55.829Z,57.15
2022-12-29T02:16:59.371Z,57.31
2022-12-29T02:20:12.174Z,57.78
2022-12-29T02:23:42.114Z,58.17
2022-12-29T02:26:27.379Z,58.04
2022-12-29T02:29:31.351Z,58.02
2022-12-29T02:32:45.052Z,58.09
2022-12-29T02:35:46.457Z,58.26
2022-12-29T02:38:38.830Z,59.33
2022-12-29T02:41:24.325Z,59.07
2022-12-29T02:44:36.016Z,58.79
2022-12-29T02:47:29.492Z,58.49
2022-12-29T02:50:43.285Z,58.34
2022-12-29T02:53:40.289Z,58.43
2022-12-29T02:56:08.048Z,59.31
2022-12-29T02:58:40.662Z,58.56
2022-12-29T03:02:19.107Z,58.41
2022-12-29T03:05:16.318Z,59.20
2022-12-29T03:08:28.193Z,59.49
2022-12-29T03:11:32.133Z,59.16
2022-12-29T03:14:53.168Z,59.25
2022-12-29T03:17:56.227Z,59.50
2022-12-29T03:20:39.812Z,58.97
2022-12-29T03:23:09.420Z,58.78
2022-12-29T03:25:45.636Z,59.02
2022-12-29T03:28:23.572Z,59.60
2022-12-29T03:30:51.671Z,58.99
2022-12-29T03:33:28.410Z,56.44
2022-12-29T03:36:05.639Z,56.06
2022-12-29T03:39:09.652Z,55.25
2022-12-29T03:41:41.523Z,54.11
2022-12-29T03:44:09.832Z,53.19
2022-12-29T03:46:37.180Z,52.92
2022-12-29T03:49:04.737Z,52.43
2022-12-29T03:51:36.106Z,50.72
2022-12-29T03:54:06.186Z,50.71
2022-12-29T03:56:34.185Z,50.75
2022-12-29T03:59:03.358Z,49.71
2022-12-29T04:01:35.544Z,49.75
2022-12-29T04:04:03.575Z,49.07
2022-12-29T04:06:31.702Z,49.42
2022-12-29T04:09:03.725Z,48.49
2022-12-29T04:11:34.802Z,47.97
2022-12-29T04:14:06.535Z,47.16
2022-12-29T04:16:36.991Z,46.84
2022-12-29T04:19:08.917Z,45.63
2022-12-29T04:21:37.785Z,46.52
2022-12-29T04:24:09.267Z,46.53
2022-12-29T04:26:42.670Z,47.08
2022-12-29T04:29:27.882Z,47.71
2022-12-29T04:32:10.658Z,48.21
2022-12-29T04:34:49.590Z,48.67
2022-12-29T04:37:19.870Z,49.09
2022-12-29T04:39:47.755Z,49.06
2022-12-29T04:42:15.522Z,49.23
2022-12-29T04:44:45.303Z,49.03
2022-12-29T04:47:33.846Z,49.33
2022-12-29T04:50:20.408Z,49.23
2022-12-29T04:53:01.844Z,50.14
2022-12-29T04:55:29.343Z,50.71
2022-12-29T04:57:56.623Z,50.07
2022-12-29T05:00:24.138Z,48.00
2022-12-29T05:02:51.967Z,47.91
2022-12-29T05:05:19.611Z,48.72
2022-12-29T05:07:50.507Z,49.46
2022-12-29T05:10:18.765Z,49.03
2022-12-29T05:12:46.818Z,49.54
2022-12-29T05:15:15.181Z,49.37
2022-12-29T05:17:44.060Z,49.75
2022-12-29T05:20:12.418Z,50.36
2022-12-29T05:22:39.825Z,48.85
2022-12-29T05:25:08.538Z,48.73
2022-12-29T05:27:47.588Z,47.81
2022-12-29T05:30:44.421Z,47.36
2022-12-29T05:33:12.629Z,48.73
2022-12-29T05:35:40.666Z,48.87
2022-12-29T05:38:08.634Z,47.96
2022-12-29T05:40:36.055Z,48.70
2022-12-29T05:43:07.860Z,49.12
2022-12-29T05:45:56.276Z,48.30
2022-12-29T05:48:59.004Z,46.35
2022-12-29T05:51:35.855Z,46.63
2022-12-29T05:54:03.459Z,47.34
2022-12-29T05:56:30.796Z,46.45
2022-12-29T05:59:00.036Z,47.41
2022-12-29T06:01:27.617Z,46.98
2022-12-29T06:03:55.560Z,46.57
2022-12-29T06:06:48.342Z,46.91
2022-12-29T06:09:25.039Z,46.91
2022-12-29T06:11:54.133Z,47.89
2022-12-29T06:14:26.271Z,46.51
2022-12-29T06:16:53.777Z,46.19
2022-12-29T06:19:21.774Z,47.05
2022-12-29T06:21:49.552Z,46.89
2022-12-29T06:24:19.541Z,46.54
2022-12-29T06:26:46.879Z,47.53
2022-12-29T06:29:18.037Z,46.69
2022-12-29T06:31:49.837Z,47.59
2022-12-29T06:34:17.376Z,46.71
2022-12-29T06:36:44.774Z,46.41
2022-12-29T06:39:12.266Z,46.79
2022-12-29T06:41:39.949Z,46.73
2022-12-29T06:44:24.150Z,47.18
2022-12-29T06:46:56.332Z,46.28
2022-12-29T06:49:23.811Z,46.14
2022-12-29T06:51:51.208Z,45.96
2022-12-29T06:54:18.643Z,45.75
2022-12-29T06:56:46.336Z,46.44
2022-12-29T06:59:13.947Z,46.32
2022-12-29T07:01:41.739Z,45.51
2022-12-29T07:04:09.175Z,45.68
2022-12-29T07:06:36.636Z,44.92
2022-12-29T07:09:04.495Z,45.73
2022-12-29T07:11:32.346Z,47.14
2022-12-29T07:14:04.190Z,47.70
2022-12-29T07:16:35.548Z,47.17
2022-12-29T07:19:03.042Z,47.79
2022-12-29T07:21:30.308Z,47.30
2022-12-29T07:23:57.587Z,46.87
2022-12-29T07:26:25.250Z,48.00
2022-12-29T07:28:52.572Z,48.10
2022-12-29T07:31:23.893Z,48.61
2022-12-29T07:33:51.242Z,49.78
2022-12-29T07:36:18.927Z,49.84
2022-12-29T07:38:46.311Z,49.41
2022-12-29T07:41:14.025Z,50.30
2022-12-29T07:43:41.420Z,49.57
2022-12-29T07:46:55.030Z,49.14
2022-12-29T07:49:24.580Z,49.98
2022-12-29T07:51:51.868Z,50.20
2022-12-29T07:54:19.384Z,48.65
2022-12-29T07:56:48.103Z,49.23
2022-12-29T07:59:15.458Z,50.22
2022-12-29T08:01:42.945Z,49.94
2022-12-29T08:04:10.716Z,49.20
2022-12-29T08:06:38.926Z,49.24
2022-12-29T08:09:14.764Z,47.61
2022-12-29T08:11:44.714Z,48.38
2022-12-29T08:14:12.602Z,46.91
2022-12-29T08:16:40.131Z,47.39
2022-12-29T08:19:07.623Z,46.62
2022-12-29T08:21:34.984Z,46.15
2022-12-29T08:24:03.136Z,45.30
2022-12-29T08:26:30.488Z,46.35
2022-12-29T08:28:57.733Z,46.07
2022-12-29T08:31:25.450Z,45.51
2022-12-29T08:33:53.519Z,45.52
2022-12-29T08:36:21.219Z,45.61
2022-12-29T08:38:48.531Z,45.93
2022-12-29T08:41:16.135Z,45.30
2022-12-29T08:43:48.642Z,43.99
2022-12-29T08:46:17.668Z,44.39
2022-12-29T08:48:45.375Z,44.88
2022-12-29T08:51:13.259Z,44.71
2022-12-29T08:53:40.605Z,43.21
2022-12-29T08:56:15.024Z,41.68
2022-12-29T08:58:50.086Z,42.90
2022-12-29T09:01:19.846Z,44.70
2022-12-29T09:06:40.160Z,42.57
2022-12-29T09:09:08.624Z,43.45
2022-12-29T09:11:36.364Z,44.88
2022-12-29T09:14:04.904Z,44.42
2022-12-29T09:16:36.744Z,44.15
2022-12-29T09:19:04.764Z,43.13
2022-12-29T09:21:33.005Z,41.51
2022-12-29T09:24:00.401Z,42.70
2022-12-29T09:26:27.997Z,41.66
2022-12-29T09:28:55.581Z,42.19
2022-12-29T09:31:23.238Z,41.88
2022-12-29T09:33:50.832Z,41.11
2022-12-29T09:36:18.396Z,41.74
2022-12-29T09:38:46.192Z,42.09
2022-12-29T09:41:45.729Z,41.36
2022-12-29T09:44:54.871Z,40.82
2022-12-29T09:47:26.356Z,41.90
2022-12-29T09:50:30.040Z,40.54
2022-12-29T09:53:23.180Z,39.82
2022-12-29T09:56:02.558Z,41.24
2022-12-29T09:58:31.304Z,38.94
2022-12-29T10:01:19.667Z,39.23
2022-12-29T10:03:53.967Z,38.69
2022-12-29T10:06:28.533Z,37.67
2022-12-29T10:09:39.483Z,36.51
2022-12-29T10:13:05.157Z,37.37
2022-12-29T10:16:03.545Z,37.71
2022-12-29T10:19:35.203Z,39.44
2022-12-29T10:22:47.049Z,39.82
2022-12-29T10:25:26.092Z,39.91
2022-12-29T10:28:02.340Z,40.16
2022-12-29T10:30:30.899Z,40.76
2022-12-29T10:33:17.487Z,39.67
2022-12-29T10:35:46.805Z,39.66
2022-12-29T10:38:37.524Z,40.15
2022-12-29T10:41:27.600Z,38.95
2022-12-29T10:43:59.120Z,39.96
2022-12-29T10:46:35.031Z,38.81
2022-12-29T10:49:03.441Z,38.49
2022-12-29T10:51:39.629Z,37.57
2022-12-29T10:54:31.538Z,32.63
2022-12-29T10:57:11.915Z,27.57
2022-12-29T10:59:40.764Z,25.95
2022-12-29T11:02:11.299Z,27.53
2022-12-29T11:05:11.816Z,29.54
2022-12-29T11:07:40.610Z,33.05
2022-12-29T11:10:41.953Z,35.03
2022-12-29T11:13:38.992Z,35.36
2022-12-29T11:16:07.309Z,36.70
2022-12-29T11:18:41.022Z,37.05
2022-12-29T11:21:35.278Z,37.09
2022-12-29T11:24:18.628Z,37.94
2022-12-29T11:26:46.406Z,36.85
2022-12-29T11:29:52.077Z,37.35
2022-12-29T11:32:28.986Z,37.59
2022-12-29T11:35:00.307Z,38.00
2022-12-29T11:37:40.911Z,38.93
2022-12-29T11:40:20.940Z,39.59
2022-12-29T11:43:03.400Z,39.59
2022-12-29T11:45:36.790Z,41.95
2022-12-29T11:48:22.516Z,40.74
2022-12-29T11:51:00.667Z,42.27
2022-12-29T11:53:46.512Z,39.18
2022-12-29T11:56:23.783Z,38.48
2022-12-29T11:58:52.126Z,38.20
2022-12-29T12:01:40.977Z,37.84
2022-12-29T12:04:18.752Z,37.21
2022-12-29T12:07:39.449Z,37.37
2022-12-29T12:10:19.575Z,38.21
2022-12-29T12:13:06.245Z,38.81
2022-12-29T12:15:48.243Z,40.59
2022-12-29T12:19:04.207Z,40.89
2022-12-29T12:22:02.206Z,40.29
2022-12-29T12:24:35.408Z,42.09
2022-12-29T12:27:27.395Z,41.35
2022-12-29T12:30:14.058Z,42.76
2022-12-29T12:33:31.352Z,41.83
2022-12-29T12:37:12.891Z,40.90
2022-12-29T12:40:08.726Z,42.12
2022-12-29T12:43:30.666Z,42.78
2022-12-29T12:46:31.456Z,45.36
2022-12-29T12:49:29.314Z,47.81
2022-12-29T12:52:25.669Z,52.68
2022-12-29T12:55:31.571Z,50.81
2022-12-29T12:58:13.896Z,49.86
2022-12-29T13:01:14.550Z,49.68
2022-12-29T13:04:35.702Z,47.40
2022-12-29T13:11:43.888Z,43.74
2022-12-29T13:14:32.999Z,43.33
2022-12-29T13:17:20.153Z,43.74
2022-12-29T13:20:44.821Z,42.75
2022-12-29T13:23:39.667Z,41.77
2022-12-29T13:26:29.966Z,41.58
2022-12-29T13:29:18.436Z,41.65
2022-12-29T13:32:24.294Z,42.81
2022-12-29T13:35:33.629Z,43.41
2022-12-29T13:38:41.807Z,44.60
2022-12-29T13:41:36.077Z,45.03
2022-12-29T13:44:06.460Z,44.45
2022-12-29T13:46:45.147Z,45.60
2022-12-29T13:49:25.470Z,46.00
2022-12-29T13:51:58.101Z,45.19
2022-12-29T13:55:01.105Z,45.30
2022-12-29T13:57:46.901Z,44.90
2022-12-29T14:00:24.709Z,44.34
2022-12-29T14:03:30.327Z,44.05
2022-12-29T14:06:41.660Z,44.84
2022-12-29T14:09:54.202Z,44.33
2022-12-29T14:12:43.641Z,44.28
2022-12-29T14:15:21.407Z,44.62
2022-12-29T14:18:02.971Z,44.57
2022-12-29T14:20:30.737Z,45.03
2022-12-29T14:23:43.109Z,46.79
2022-12-29T14:26:32.626Z,45.03
2022-12-29T14:29:26.547Z,45.04
2022-12-29T14:31:54.756Z,45.29
2022-12-29T14:34:22.247Z,46.36
2022-12-29T14:36:59.029Z,45.91
2022-12-29T14:39:45.812Z,45.93
2022-12-29T14:42:23.802Z,45.87
2022-12-29T14:45:26.994Z,45.59
2022-12-29T14:47:55.525Z,45.84
2022-12-29T14:50:35.949Z,46.80
2022-12-29T14:53:07.541Z,47.36
2022-12-29T14:55:58.436Z,47.58
2022-12-29T14:58:53.363Z,49.83
2022-12-29T15:01:28.412Z,48.62
2022-12-29T15:04:06.691Z,48.47
2022-12-29T15:06:40.816Z,49.23
2022-12-29T15:09:44.724Z,49.09
2022-12-29T15:12:47.809Z,48.72
2022-12-29T15:15:41.928Z,49.92
2022-12-29T15:18:31.868Z,50.78
2022-12-29T15:21:07.738Z,51.22
2022-12-29T15:23:46.672Z,51.03
2022-12-29T15:26:22.400Z,51.07
2022-12-29T15:28:53.801Z,51.73
2022-12-29T15:31:30.263Z,52.91
2022-12-29T15:34:13.636Z,51.75
2022-12-29T15:36:42.711Z,52.21
2022-12-29T15:39:32.363Z,51.96
2022-12-29T15:42:59.925Z,50.60
2022-12-29T15:45:36.781Z,50.60
2022-12-29T15:48:14.992Z,49.38
2022-12-29T15:50:44.344Z,49.26
2022-12-29T15:53:20.949Z,49.19
2022-12-29T15:55:50.754Z,48.69
2022-12-29T15:58:43.674Z,49.18
2022-12-29T16:01:35.249Z,48.21
2022-12-29T16:04:09.254Z,48.29
2022-12-29T16:06:56.258Z,48.75
2022-12-29T16:09:45.816Z,48.95
2022-12-29T16:12:31.475Z,48.18
2022-12-29T16:15:09.267Z,48.22
2022-12-29T16:17:51.695Z,50.05
2022-12-29T16:20:44.036Z,49.34
2022-12-29T16:23:28.581Z,48.88
2022-12-29T16:25:58.822Z,51.49
2022-12-29T16:28:51.653Z,51.50
2022-12-29T16:31:49.735Z,51.60
2022-12-29T16:34:34.283Z,52.19
2022-12-29T16:37:28.827Z,52.57
2022-12-29T16:39:56.493Z,53.08
2022-12-29T16:42:51.336Z,52.76
2022-12-29T16:45:24.686Z,52.22
2022-12-29T16:48:17.116Z,52.81
2022-12-29T16:50:47.045Z,55.81
2022-12-29T16:53:29.632Z,56.07
2022-12-29T16:56:26.521Z,56.41
2022-12-29T16:59:18.354Z,55.95
2022-12-29T17:01:46.163Z,55.60
2022-12-29T17:04:15.283Z,55.64
2022-12-29T17:06:43.055Z,55.40
2022-12-29T17:09:28.995Z,55.39
2022-12-29T17:12:10.669Z,55.29
2022-12-29T17:15:00.751Z,55.42
2022-12-29T17:17:43.652Z,54.85
2022-12-29T17:20:31.473Z,55.20
2022-12-29T17:23:00.210Z,55.37
2022-12-29T17:25:35.635Z,55.14
2022-12-29T17:28:18.473Z,55.50
2022-12-29T17:30:45.845Z,55.71
2022-12-29T17:33:25.659Z,55.70
2022-12-29T17:37:25.080Z,56.34
2022-12-29T17:39:35.516Z,56.35
2022-12-29T17:42:03.053Z,56.33
2022-12-29T17:44:30.572Z,56.25
2022-12-29T17:47:01.200Z,56.20
2022-12-29T17:49:28.829Z,56.08
2022-12-29T17:51:58.049Z,56.04
2022-12-29T17:54:34.104Z,55.88
2022-12-29T17:57:01.832Z,56.13
2022-12-29T17:59:29.685Z,56.33
2022-12-29T18:01:57.077Z,56.44
2022-12-29T18:04:24.671Z,56.85
2022-12-29T18:06:54.292Z,57.55
2022-12-29T18:09:24.816Z,57.66
2022-12-29T18:11:52.263Z,57.27
2022-12-29T18:14:23.131Z,57.73
2022-12-29T18:16:55.969Z,58.67
2022-12-29T18:19:23.371Z,57.90
2022-12-29T18:21:53.394Z,56.87
2022-12-29T18:24:24.372Z,57.42
2022-12-29T18:26:51.908Z,57.10
2022-12-29T18:29:19.264Z,56.75
2022-12-29T18:31:46.806Z,56.56
2022-12-29T18:34:15.594Z,56.87
2022-12-29T18:36:43.060Z,57.62
2022-12-29T18:39:12.952Z,57.74
2022-12-29T18:41:40.502Z,59.27
2022-12-29T18:44:15.159Z,59.62
2022-12-29T18:46:46.045Z,60.69
2022-12-29T18:49:13.435Z,62.09
2022-12-29T18:51:40.924Z,63.16
2022-12-29T18:54:32.067Z,64.06
2022-12-29T18:57:00.524Z,64.55
2022-12-29T18:59:27.871Z,65.53
2022-12-29T19:01:55.230Z,65.71
2022-12-29T19:04:22.593Z,65.55
2022-12-29T19:06:53.534Z,65.74
2022-12-29T19:09:20.867Z,67.33
2022-12-29T19:11:51.892Z,67.27
2022-12-29T19:14:20.345Z,67.32
2022-12-29T19:16:49.669Z,67.82
2022-12-29T19:19:17.716Z,68.41
2022-12-29T19:21:46.260Z,68.11
2022-12-29T19:24:14.137Z,68.40
2022-12-29T19:26:48.750Z,68.22
2022-12-29T19:29:20.854Z,68.54
2022-12-29T19:31:51.480Z,68.68
2022-12-29T19:34:19.869Z,69.09
2022-12-29T19:36:47.359Z,68.96
2022-12-29T19:39:14.702Z,68.75
2022-12-29T19:41:42.440Z,69.34
2022-12-29T19:44:09.780Z,68.77
2022-12-29T19:46:37.252Z,69.46
2022-12-29T19:49:04.816Z,70.16
2022-12-29T19:51:32.581Z,69.11
2022-12-29T19:53:59.903Z,69.31
2022-12-29T19:56:27.451Z,69.82
2022-12-29T19:58:54.907Z,71.18
2022-12-29T20:01:24.846Z,70.77
2022-12-29T20:03:52.682Z,70.92
2022-12-29T20:06:20.926Z,70.91
2022-12-29T20:08:48.383Z,69.79
2022-12-29T20:11:20.722Z,69.99
2022-12-29T20:13:48.700Z,70.40
2022-12-29T20:16:20.270Z,70.55
2022-12-29T20:18:49.022Z,70.21
2022-12-29T20:21:25.091Z,70.33
2022-12-29T20:23:54.324Z,70.84
2022-12-29T20:26:27.727Z,70.82
2022-12-29T20:28:58.156Z,70.44
2022-12-29T20:31:38.516Z,71.26
2022-12-29T20:34:08.880Z,69.50
2022-12-29T20:36:42.136Z,70.01
2022-12-29T20:39:17.868Z,70.73
2022-12-29T20:41:46.629Z,70.65
2022-12-29T20:44:14.383Z,70.44
2022-12-29T20:46:44.173Z,70.36
2022-12-29T20:49:12.228Z,70.37
2022-12-29T20:52:04.906Z,71.33
2022-12-29T20:54:27.054Z,71.18
2022-12-29T20:56:54.695Z,70.33
2022-12-29T20:59:29.793Z,69.57
2022-12-29T21:01:58.316Z,70.20
2022-12-29T21:04:26.486Z,70.92
2022-12-29T21:06:54.332Z,70.46
2022-12-29T21:09:22.178Z,71.34
2022-12-29T21:11:49.885Z,71.19
2022-12-29T21:14:17.242Z,71.22
2022-12-29T21:16:45.020Z,70.29
2022-12-29T21:19:13.633Z,70.36
2022-12-29T21:21:40.968Z,69.65
2022-12-29T21:24:08.471Z,71.10
2022-12-29T21:26:35.895Z,70.28
2022-12-29T21:29:04.033Z,70.78
2022-12-29T21:31:36.499Z,69.27
2022-12-29T21:34:06.230Z,70.07
2022-12-29T21:36:34.629Z,69.91
2022-12-29T21:39:03.653Z,69.68
2022-12-29T21:41:32.122Z,70.06
2022-12-29T21:44:18.864Z,70.24
2022-12-29T21:46:47.841Z,66.54
2022-12-29T21:49:16.185Z,68.54
2022-12-29T21:51:57.391Z,69.21
2022-12-29T21:54:49.685Z,68.35
2022-12-29T21:57:38.306Z,69.36
2022-12-29T22:00:28.360Z,68.40
2022-12-29T22:03:22.528Z,70.19
2022-12-29T22:06:12.355Z,71.03
2022-12-29T22:08:59.024Z,70.69
2022-12-29T22:11:45.463Z,67.95
2022-12-29T22:14:12.943Z,69.76
2022-12-29T22:16:40.562Z,68.38
2022-12-29T22:19:08.819Z,69.12
2022-12-29T22:21:36.290Z,68.07
2022-12-29T22:24:14.721Z,68.41
2022-12-29T22:26:42.000Z,69.07
2022-12-29T22:29:09.343Z,66.99
2022-12-29T22:31:36.822Z,68.10
2022-12-29T22:34:05.213Z,68.25
2022-12-29T22:36:35.715Z,66.75
2022-12-29T22:39:03.076Z,68.11
2022-12-29T22:41:30.565Z,67.80
2022-12-29T22:43:57.971Z,67.39
2022-12-29T22:46:25.512Z,69.31
2022-12-29T22:48:53.013Z,67.16
2022-12-29T22:51:20.374Z,68.50
2022-12-29T22:53:51.262Z,67.04
2022-12-29T22:56:19.133Z,68.21
2022-12-29T22:58:48.940Z,68.83
2022-12-29T23:01:22.471Z,68.94
2022-12-29T23:03:50.306Z,69.00
2022-12-29T23:06:18.235Z,69.74
2022-12-29T23:08:47.329Z,69.48
2022-12-29T23:11:15.167Z,70.18
2022-12-29T23:13:45.140Z,70.07
2022-12-29T23:16:15.499Z,69.71
2022-12-29T23:18:45.089Z,71.75
2022-12-29T23:21:14.455Z,72.42
2022-12-29T23:23:54.106Z,69.33
2022-12-29T23:26:32.596Z,68.17
2022-12-29T23:29:04.318Z,70.00
2022-12-29T23:31:33.638Z,69.63
2022-12-29T23:34:03.401Z,69.44
2022-12-29T23:36:31.690Z,67.81
2022-12-29T23:38:59.812Z,69.46
2022-12-29T23:41:28.532Z,70.50
2022-12-29T23:43:56.057Z,68.22
2022-12-29T23:46:28.129Z,66.60
2022-12-29T23:48:56.203Z,66.43
2022-12-29T23:51:23.647Z,68.03
2022-12-29T23:53:51.368Z,69.65
2022-12-29T23:56:22.999Z,66.46
2022-12-29T23:58:51.592Z,64.70
